sensor_id;sensor_type;location;lat;lon;timestamp;temperature;humidity
20162;DHT22;51382;53.180;15.414;2024-03-22T00:04:58;6.80;99.90
20162;DHT22;51382;53.180;15.414;2024-03-22T00:20:10;6.80;99.90
20162;DHT22;51382;53.180;15.414;2024-03-22T00:35:21;6.60;99.90
20162;DHT22;51382;53.180;15.414;2024-03-22T00:50:27;6.60;99.90
20162;DHT22;51382;53.180;15.414;2024-03-22T01:05:38;6.60;99.90
20162;DHT22;51382;53.180;15.414;2024-03-22T01:20:50;6.70;99.90
20162;DHT22;51382;53.180;15.414;2024-03-22T01:36:01;6.60;99.90
20162;DHT22;51382;53.180;15.414;2024-03-22T01:51:13;6.70;99.90
20162;DHT22;51382;53.180;15.414;2024-03-22T02:06:24;6.70;99.90
20162;DHT22;51382;53.180;15.414;2024-03-22T02:21:35;6.80;99.90
20162;DHT22;51382;53.180;15.414;2024-03-22T02:36:45;6.90;99.90
20162;DHT22;51382;53.180;15.414;2024-03-22T02:51:56;6.80;99.90
20162;DHT22;51382;53.180;15.414;2024-03-22T03:07:07;6.80;99.90
20162;DHT22;51382;53.180;15.414;2024-03-22T03:22:19;6.90;99.90
20162;DHT22;51382;53.180;15.414;2024-03-22T03:37:30;7.00;99.90
20162;DHT22;51382;53.180;15.414;2024-03-22T03:52:40;7.00;99.90
20162;DHT22;51382;53.180;15.414;2024-03-22T04:07:51;6.90;99.90
20162;DHT22;51382;53.180;15.414;2024-03-22T04:23:01;6.70;99.90
20162;DHT22;51382;53.180;15.414;2024-03-22T04:38:12;6.60;99.90
20162;DHT22;51382;53.180;15.414;2024-03-22T04:53:23;6.60;99.90
20162;DHT22;51382;53.180;15.414;2024-03-22T05:08:33;6.70;99.90
20162;DHT22;51382;53.180;15.414;2024-03-22T05:23:44;6.80;99.90
20162;DHT22;51382;53.180;15.414;2024-03-22T05:38:55;7.00;99.90
20162;DHT22;51382;53.180;15.414;2024-03-22T05:54:06;7.10;99.90
20162;DHT22;51382;53.180;15.414;2024-03-22T06:09:17;7.30;99.90
20162;DHT22;51382;53.180;15.414;2024-03-22T06:24:32;7.60;99.90
20162;DHT22;51382;53.180;15.414;2024-03-22T06:39:42;7.70;99.90
20162;DHT22;51382;53.180;15.414;2024-03-22T06:54:53;7.90;99.90
20162;DHT22;51382;53.180;15.414;2024-03-22T07:10:05;7.90;99.90
20162;DHT22;51382;53.180;15.414;2024-03-22T07:25:16;8.20;99.90
20162;DHT22;51382;53.180;15.414;2024-03-22T07:40:27;8.50;99.90
20162;DHT22;51382;53.180;15.414;2024-03-22T07:55:38;9.40;99.90
20162;DHT22;51382;53.180;15.414;2024-03-22T08:10:48;9.50;99.90
20162;DHT22;51382;53.180;15.414;2024-03-22T08:25:59;10.00;99.90
20162;DHT22;51382;53.180;15.414;2024-03-22T08:41:10;10.00;99.90
20162;DHT22;51382;53.180;15.414;2024-03-22T08:56:22;10.30;99.90
20162;DHT22;51382;53.180;15.414;2024-03-22T09:11:33;9.60;99.90
20162;DHT22;51382;53.180;15.414;2024-03-22T09:26:44;9.10;99.90
20162;DHT22;51382;53.180;15.414;2024-03-22T09:41:56;9.20;99.90
20162;DHT22;51382;53.180;15.414;2024-03-22T09:57:08;9.40;99.90
20162;DHT22;51382;53.180;15.414;2024-03-22T10:12:23;9.50;99.90
20162;DHT22;51382;53.180;15.414;2024-03-22T10:27:34;10.00;99.90
20162;DHT22;51382;53.180;15.414;2024-03-22T10:42:46;10.60;99.90
20162;DHT22;51382;53.180;15.414;2024-03-22T10:58:00;10.80;99.90
20162;DHT22;51382;53.180;15.414;2024-03-22T11:13:11;11.20;99.90
20162;DHT22;51382;53.180;15.414;2024-03-22T11:28:21;11.50;99.90
20162;DHT22;51382;53.180;15.414;2024-03-22T11:43:32;11.40;99.90
20162;DHT22;51382;53.180;15.414;2024-03-22T11:58:45;12.10;99.90
20162;DHT22;51382;53.180;15.414;2024-03-22T12:13:52;11.80;99.90
20162;DHT22;51382;53.180;15.414;2024-03-22T12:29:03;11.90;99.90
20162;DHT22;51382;53.180;15.414;2024-03-22T12:44:15;11.70;99.90
20162;DHT22;51382;53.180;15.414;2024-03-22T12:59:26;10.60;99.90
20162;DHT22;51382;53.180;15.414;2024-03-22T13:14:37;10.50;99.90
20162;DHT22;51382;53.180;15.414;2024-03-22T13:29:48;11.00;99.90
20162;DHT22;51382;53.180;15.414;2024-03-22T13:45:00;11.50;99.90
20162;DHT22;51382;53.180;15.414;2024-03-22T14:00:14;11.60;99.90
20162;DHT22;51382;53.180;15.414;2024-03-22T14:15:25;11.30;99.90
20162;DHT22;51382;53.180;15.414;2024-03-22T14:30:34;11.20;99.90
20162;DHT22;51382;53.180;15.414;2024-03-22T14:45:46;10.30;99.90
20162;DHT22;51382;53.180;15.414;2024-03-22T15:00:57;9.90;99.90
20162;DHT22;51382;53.180;15.414;2024-03-22T15:16:09;9.90;99.90
20162;DHT22;51382;53.180;15.414;2024-03-22T15:31:21;10.10;99.90
20162;DHT22;51382;53.180;15.414;2024-03-22T15:46:31;10.20;99.90
20162;DHT22;51382;53.180;15.414;2024-03-22T16:01:45;10.10;99.90
20162;DHT22;51382;53.180;15.414;2024-03-22T16:16:56;10.00;99.90
20162;DHT22;51382;53.180;15.414;2024-03-22T16:32:07;9.80;99.90
20162;DHT22;51382;53.180;15.414;2024-03-22T16:47:20;9.70;99.90
20162;DHT22;51382;53.180;15.414;2024-03-22T17:02:32;9.60;99.90
20162;DHT22;51382;53.180;15.414;2024-03-22T17:17:43;9.80;99.90
20162;DHT22;51382;53.180;15.414;2024-03-22T17:32:54;10.00;99.90
20162;DHT22;51382;53.180;15.414;2024-03-22T17:48:05;10.10;99.90
20162;DHT22;51382;53.180;15.414;2024-03-22T18:03:16;10.20;99.90
20162;DHT22;51382;53.180;15.414;2024-03-22T18:18:26;10.10;99.90
20162;DHT22;51382;53.180;15.414;2024-03-22T18:33:39;10.00;99.90
20162;DHT22;51382;53.180;15.414;2024-03-22T18:48:52;9.60;99.90
20162;DHT22;51382;53.180;15.414;2024-03-22T19:04:04;9.50;99.90
20162;DHT22;51382;53.180;15.414;2024-03-22T19:19:15;9.60;99.90
20162;DHT22;51382;53.180;15.414;2024-03-22T19:34:33;9.60;99.90
20162;DHT22;51382;53.180;15.414;2024-03-22T19:49:46;9.70;99.90
20162;DHT22;51382;53.180;15.414;2024-03-22T20:04:57;9.80;99.90
20162;DHT22;51382;53.180;15.414;2024-03-22T20:20:12;9.90;99.90
20162;DHT22;51382;53.180;15.414;2024-03-22T20:35:18;10.00;99.90
